WZZ4D EPGD-EKBI
Flight info
| Callsign | WZZ4D |
|---|---|
| Flight time | 0h 59m |
| Altitude | 36000 |
| Route | DEXIR Y100 MALOX L621 LUSID DCT ODDON DCT LOKSA |
| Aircraft | A321/M-SDE1E2E3FGIJ1J4RWXY/LB1 |
Departure
| Time | 2025-10-08 09:07 |
|---|---|
| Airport | Gdańsk Lech Wałęsa Airport (EPGD) |
Arrival
| Time | 2025-10-08 10:06 |
|---|---|
| Airport | Billund Airport (EKBI) |
| Time | Latitude | Longitude | Altitude | Speed | Heading |
|---|---|---|---|---|---|
| 2025-10-08 08:43 | 54.38204 | 18.46251 | 460 ft | 0 kts | 22° |
| 2025-10-08 08:55 | 54.38198 | 18.46248 | 460 ft | 2 kts | 25° |
| 2025-10-08 08:55 | 54.38174 | 18.46203 | 457 ft | 3 kts | 88° |
| 2025-10-08 08:56 | 54.38177 | 18.46170 | 457 ft | 0 kts | 113° |
| 2025-10-08 08:58 | 54.38175 | 18.46177 | 457 ft | 1 kts | 113° |
| 2025-10-08 08:59 | 54.38161 | 18.46231 | 457 ft | 3 kts | 113° |
| 2025-10-08 08:59 | 54.38137 | 18.46327 | 460 ft | 5 kts | 114° |
| 2025-10-08 09:00 | 54.38098 | 18.46488 | 460 ft | 10 kts | 113° |
| 2025-10-08 09:01 | 54.37992 | 18.46588 | 460 ft | 5 kts | 199° |
| 2025-10-08 09:01 | 54.37924 | 18.46680 | 459 ft | 10 kts | 116° |
| 2025-10-08 09:01 | 54.37888 | 18.46814 | 459 ft | 14 kts | 112° |
| 2025-10-08 09:02 | 54.37808 | 18.47135 | 460 ft | 16 kts | 115° |
| 2025-10-08 09:02 | 54.37719 | 18.47495 | 460 ft | 14 kts | 113° |
| 2025-10-08 09:03 | 54.37669 | 18.47700 | 466 ft | 9 kts | 113° |
| 2025-10-08 09:03 | 54.37582 | 18.48049 | 471 ft | 22 kts | 113° |
| 2025-10-08 09:04 | 54.37469 | 18.48505 | 485 ft | 15 kts | 113° |
| 2025-10-08 09:04 | 54.37436 | 18.48632 | 483 ft | 9 kts | 120° |
| 2025-10-08 09:05 | 54.37431 | 18.47922 | 471 ft | 85 kts | 294° |
| 2025-10-08 09:05 | 54.38184 | 18.44855 | 893 ft | 160 kts | 285° |
| 2025-10-08 09:06 | 54.38992 | 18.41379 | 2588 ft | 161 kts | 285° |
| 2025-10-08 09:06 | 54.39941 | 18.37261 | 3317 ft | 209 kts | 289° |
| 2025-10-08 09:07 | 54.41184 | 18.32358 | 4815 ft | 228 kts | 292° |
| 2025-10-08 09:07 | 54.42457 | 18.27370 | 6626 ft | 229 kts | 292° |
| 2025-10-08 09:08 | 54.43091 | 18.24837 | 7341 ft | 233 kts | 292° |
| 2025-10-08 09:08 | 54.44341 | 18.19636 | 8815 ft | 238 kts | 287° |
| 2025-10-08 09:09 | 54.45948 | 18.10599 | 10371 ft | 277 kts | 287° |
| 2025-10-08 09:09 | 54.47159 | 18.03752 | 10837 ft | 319 kts | 287° |
| 2025-10-08 09:10 | 54.48459 | 17.96331 | 12056 ft | 331 kts | 287° |
| 2025-10-08 09:10 | 54.49797 | 17.88629 | 13431 ft | 337 kts | 287° |
| 2025-10-08 09:11 | 54.50464 | 17.84797 | 14094 ft | 341 kts | 287° |
| 2025-10-08 09:11 | 54.51846 | 17.76841 | 15302 ft | 347 kts | 287° |
| 2025-10-08 09:12 | 54.53221 | 17.68860 | 16591 ft | 354 kts | 287° |
| 2025-10-08 09:12 | 54.54630 | 17.60650 | 17805 ft | 360 kts | 288° |
| 2025-10-08 09:13 | 54.56780 | 17.48039 | 19456 ft | 371 kts | 287° |
| 2025-10-08 09:13 | 54.58240 | 17.39461 | 20656 ft | 374 kts | 286° |
| 2025-10-08 09:14 | 54.59702 | 17.30792 | 21784 ft | 380 kts | 286° |
| 2025-10-08 09:14 | 54.61186 | 17.21975 | 22829 ft | 385 kts | 286° |
| 2025-10-08 09:15 | 54.61932 | 17.17526 | 23326 ft | 388 kts | 285° |
| 2025-10-08 09:15 | 54.63430 | 17.08545 | 24203 ft | 393 kts | 285° |
| 2025-10-08 09:16 | 54.64945 | 16.99420 | 25000 ft | 397 kts | 285° |
| 2025-10-08 09:16 | 54.67224 | 16.85587 | 26312 ft | 400 kts | 285° |
| 2025-10-08 09:18 | 54.73383 | 16.47696 | 29216 ft | 418 kts | 285° |
| 2025-10-08 09:21 | 54.80435 | 16.03143 | 32172 ft | 429 kts | 285° |
| 2025-10-08 09:22 | 54.85531 | 15.70241 | 34738 ft | 420 kts | 285° |
| 2025-10-08 09:24 | 54.90719 | 15.35984 | 36117 ft | 416 kts | 284° |
| 2025-10-08 09:26 | 54.97730 | 14.92521 | 36121 ft | 416 kts | 285° |
| 2025-10-08 09:28 | 55.03144 | 14.58552 | 36131 ft | 416 kts | 285° |
| 2025-10-08 09:30 | 55.09971 | 14.14752 | 36140 ft | 414 kts | 284° |
| 2025-10-08 09:32 | 55.15888 | 13.75886 | 36136 ft | 413 kts | 284° |
| 2025-10-08 09:34 | 55.20931 | 13.41968 | 36135 ft | 411 kts | 284° |
| 2025-10-08 09:36 | 55.26548 | 13.03273 | 36139 ft | 407 kts | 283° |
| 2025-10-08 09:38 | 55.32010 | 12.64730 | 34502 ft | 402 kts | 282° |
| 2025-10-08 09:40 | 55.37081 | 12.28058 | 31031 ft | 370 kts | 282° |
| 2025-10-08 09:42 | 55.42196 | 11.90128 | 27574 ft | 336 kts | 281° |
| 2025-10-08 09:45 | 55.46742 | 11.55583 | 24554 ft | 313 kts | 281° |
| 2025-10-08 09:45 | 55.47710 | 11.48117 | 23861 ft | 311 kts | 281° |
| 2025-10-08 09:45 | 55.48188 | 11.44408 | 23475 ft | 309 kts | 281° |
| 2025-10-08 09:46 | 55.49131 | 11.37055 | 22755 ft | 306 kts | 281° |
| 2025-10-08 09:46 | 55.50066 | 11.29764 | 22039 ft | 302 kts | 281° |
| 2025-10-08 09:47 | 55.50985 | 11.22567 | 21327 ft | 299 kts | 281° |
| 2025-10-08 09:47 | 55.51887 | 11.15454 | 20626 ft | 295 kts | 281° |
| 2025-10-08 09:48 | 55.52768 | 11.08433 | 19934 ft | 291 kts | 280° |
| 2025-10-08 09:49 | 55.54066 | 10.98060 | 18899 ft | 286 kts | 281° |
| 2025-10-08 09:49 | 55.54918 | 10.91228 | 18193 ft | 284 kts | 280° |
| 2025-10-08 09:49 | 55.55336 | 10.87831 | 17842 ft | 282 kts | 280° |
| 2025-10-08 09:50 | 55.56160 | 10.81139 | 17174 ft | 279 kts | 281° |
| 2025-10-08 09:50 | 55.56982 | 10.74488 | 16508 ft | 276 kts | 281° |
| 2025-10-08 09:51 | 55.57789 | 10.67893 | 15846 ft | 273 kts | 281° |
| 2025-10-08 09:51 | 55.58652 | 10.61385 | 15140 ft | 271 kts | 283° |
| 2025-10-08 09:52 | 55.59659 | 10.54979 | 14425 ft | 269 kts | 284° |
| 2025-10-08 09:53 | 55.61150 | 10.45473 | 13336 ft | 266 kts | 284° |
| 2025-10-08 09:53 | 55.61640 | 10.42287 | 12968 ft | 264 kts | 284° |
| 2025-10-08 09:53 | 55.62586 | 10.36094 | 12286 ft | 261 kts | 284° |
| 2025-10-08 09:54 | 55.63517 | 10.29926 | 11595 ft | 258 kts | 284° |
| 2025-10-08 09:54 | 55.64438 | 10.23804 | 10912 ft | 256 kts | 284° |
| 2025-10-08 09:55 | 55.65351 | 10.17718 | 10237 ft | 256 kts | 284° |
| 2025-10-08 09:55 | 55.66270 | 10.11606 | 9529 ft | 256 kts | 284° |
| 2025-10-08 09:56 | 55.67180 | 10.05550 | 8842 ft | 253 kts | 284° |
| 2025-10-08 09:56 | 55.67627 | 10.02543 | 8510 ft | 251 kts | 284° |
| 2025-10-08 09:57 | 55.68937 | 9.93669 | 7521 ft | 246 kts | 283° |
| 2025-10-08 09:57 | 55.69788 | 9.87885 | 6870 ft | 243 kts | 283° |
| 2025-10-08 09:58 | 55.70638 | 9.82113 | 6202 ft | 240 kts | 282° |
| 2025-10-08 09:58 | 55.71469 | 9.76422 | 5575 ft | 236 kts | 282° |
| 2025-10-08 09:59 | 55.72295 | 9.70746 | 4824 ft | 237 kts | 283° |
| 2025-10-08 09:59 | 55.73106 | 9.65179 | 4421 ft | 222 kts | 283° |
| 2025-10-08 10:00 | 55.73837 | 9.60097 | 4268 ft | 208 kts | 283° |
| 2025-10-08 10:00 | 55.74193 | 9.57613 | 4174 ft | 207 kts | 284° |
| 2025-10-08 10:01 | 55.75034 | 9.50115 | 3798 ft | 208 kts | 270° |
| 2025-10-08 10:01 | 55.74908 | 9.44965 | 3268 ft | 209 kts | 268° |
| 2025-10-08 10:02 | 55.74761 | 9.39852 | 2710 ft | 207 kts | 269° |
| 2025-10-08 10:02 | 55.74616 | 9.34794 | 2178 ft | 206 kts | 269° |
| 2025-10-08 10:03 | 55.74475 | 9.30017 | 1656 ft | 175 kts | 268° |
| 2025-10-08 10:03 | 55.74362 | 9.26189 | 1225 ft | 140 kts | 269° |
| 2025-10-08 10:04 | 55.74312 | 9.24491 | 1030 ft | 136 kts | 267° |
| 2025-10-08 10:04 | 55.74214 | 9.21179 | 654 ft | 133 kts | 269° |
| 2025-10-08 10:05 | 55.74080 | 9.16450 | 238 ft | 99 kts | 266° |
| 2025-10-08 10:05 | 55.74032 | 9.15053 | 231 ft | 38 kts | 268° |
| 2025-10-08 10:06 | 55.74061 | 9.14505 | 225 ft | 10 kts | 356° |
| 2025-10-08 10:06 | 55.74177 | 9.14488 | 225 ft | 6 kts | 356° |
| 2025-10-08 10:07 | 55.74282 | 9.14479 | 225 ft | 9 kts | 357° |
| 2025-10-08 10:07 | 55.74382 | 9.14469 | 225 ft | 0 kts | 356° |
| 2025-10-08 10:09 | 55.74444 | 9.14553 | 226 ft | 6 kts | 80° |
| 2025-10-08 10:09 | 55.74450 | 9.14670 | 226 ft | 5 kts | 85° |
| 2025-10-08 10:10 | 55.74492 | 9.14683 | 227 ft | 7 kts | 359° |
| 2025-10-08 10:10 | 55.74529 | 9.14680 | 227 ft | 0 kts | 358° |